sensor_id;sensor_type;location;lat;lon;timestamp;temperature;humidity
27506;DHT22;14939;43.596;1.320;2024-01-15T00:01:34;9.30;99.90
27506;DHT22;14939;43.596;1.320;2024-01-15T00:04:00;9.30;99.90
27506;DHT22;14939;43.596;1.320;2024-01-15T00:06:25;9.30;99.90
27506;DHT22;14939;43.596;1.320;2024-01-15T00:08:52;9.30;99.90
27506;DHT22;14939;43.596;1.320;2024-01-15T00:11:18;9.40;99.90
27506;DHT22;14939;43.596;1.320;2024-01-15T00:13:43;9.40;99.90
27506;DHT22;14939;43.596;1.320;2024-01-15T00:16:09;9.30;99.90
27506;DHT22;14939;43.596;1.320;2024-01-15T00:18:35;9.30;99.90
27506;DHT22;14939;43.596;1.320;2024-01-15T00:21:01;9.20;99.90
27506;DHT22;14939;43.596;1.320;2024-01-15T00:23:27;9.20;99.90
27506;DHT22;14939;43.596;1.320;2024-01-15T00:25:52;9.10;99.90
27506;DHT22;14939;43.596;1.320;2024-01-15T00:28:18;9.10;99.90
27506;DHT22;14939;43.596;1.320;2024-01-15T00:30:43;9.00;99.90
27506;DHT22;14939;43.596;1.320;2024-01-15T00:33:09;9.00;99.90
27506;DHT22;14939;43.596;1.320;2024-01-15T00:35:37;9.00;99.90
27506;DHT22;14939;43.596;1.320;2024-01-15T00:38:03;9.10;99.90
27506;DHT22;14939;43.596;1.320;2024-01-15T00:40:28;9.10;99.90
27506;DHT22;14939;43.596;1.320;2024-01-15T00:42:54;9.10;99.90
27506;DHT22;14939;43.596;1.320;2024-01-15T00:45:20;9.20;99.90
27506;DHT22;14939;43.596;1.320;2024-01-15T00:47:45;9.10;99.90
27506;DHT22;14939;43.596;1.320;2024-01-15T00:50:11;9.20;99.90
27506;DHT22;14939;43.596;1.320;2024-01-15T00:52:37;9.20;99.90
27506;DHT22;14939;43.596;1.320;2024-01-15T00:55:02;9.20;99.90
27506;DHT22;14939;43.596;1.320;2024-01-15T00:57:28;9.30;99.90
27506;DHT22;14939;43.596;1.320;2024-01-15T00:59:54;9.30;99.90
27506;DHT22;14939;43.596;1.320;2024-01-15T01:02:20;9.30;99.90
27506;DHT22;14939;43.596;1.320;2024-01-15T01:04:45;9.30;99.90
27506;DHT22;14939;43.596;1.320;2024-01-15T01:07:11;9.30;99.90
27506;DHT22;14939;43.596;1.320;2024-01-15T01:09:37;9.30;99.90
27506;DHT22;14939;43.596;1.320;2024-01-15T01:12:02;9.40;99.90
27506;DHT22;14939;43.596;1.320;2024-01-15T01:14:28;9.40;99.90
27506;DHT22;14939;43.596;1.320;2024-01-15T01:16:54;9.30;99.90
27506;DHT22;14939;43.596;1.320;2024-01-15T01:19:19;9.30;99.90
27506;DHT22;14939;43.596;1.320;2024-01-15T01:21:45;9.30;99.90
27506;DHT22;14939;43.596;1.320;2024-01-15T01:24:11;9.30;99.90
27506;DHT22;14939;43.596;1.320;2024-01-15T01:26:36;9.30;99.90
27506;DHT22;14939;43.596;1.320;2024-01-15T01:29:02;9.30;99.90
27506;DHT22;14939;43.596;1.320;2024-01-15T01:31:27;9.30;99.90
27506;DHT22;14939;43.596;1.320;2024-01-15T01:33:53;9.30;99.90
27506;DHT22;14939;43.596;1.320;2024-01-15T01:36:19;9.30;99.90
27506;DHT22;14939;43.596;1.320;2024-01-15T01:38:44;9.30;99.90
27506;DHT22;14939;43.596;1.320;2024-01-15T01:41:10;9.20;99.90
27506;DHT22;14939;43.596;1.320;2024-01-15T01:43:36;9.20;99.90
27506;DHT22;14939;43.596;1.320;2024-01-15T01:46:02;9.20;99.90
27506;DHT22;14939;43.596;1.320;2024-01-15T01:48:29;9.20;99.90
27506;DHT22;14939;43.596;1.320;2024-01-15T01:50:58;9.10;99.90
27506;DHT22;14939;43.596;1.320;2024-01-15T01:53:25;9.00;99.90
27506;DHT22;14939;43.596;1.320;2024-01-15T01:55:52;9.10;99.90
27506;DHT22;14939;43.596;1.320;2024-01-15T01:58:19;9.10;99.90
27506;DHT22;14939;43.596;1.320;2024-01-15T02:00:48;9.00;99.90
27506;DHT22;14939;43.596;1.320;2024-01-15T02:03:15;9.00;99.90
27506;DHT22;14939;43.596;1.320;2024-01-15T02:05:41;9.00;99.90
27506;DHT22;14939;43.596;1.320;2024-01-15T02:08:08;9.00;99.90
27506;DHT22;14939;43.596;1.320;2024-01-15T02:10:34;8.90;99.90
27506;DHT22;14939;43.596;1.320;2024-01-15T02:12:59;8.90;99.90
27506;DHT22;14939;43.596;1.320;2024-01-15T02:15:25;9.00;99.90
27506;DHT22;14939;43.596;1.320;2024-01-15T02:20:22;9.00;99.90
27506;DHT22;14939;43.596;1.320;2024-01-15T02:22:48;9.00;99.90
27506;DHT22;14939;43.596;1.320;2024-01-15T02:25:14;9.00;99.90
27506;DHT22;14939;43.596;1.320;2024-01-15T02:27:39;9.00;99.90
27506;DHT22;14939;43.596;1.320;2024-01-15T02:30:06;9.00;99.90
27506;DHT22;14939;43.596;1.320;2024-01-15T02:32:33;9.00;99.90
27506;DHT22;14939;43.596;1.320;2024-01-15T02:34:59;9.00;99.90
27506;DHT22;14939;43.596;1.320;2024-01-15T02:37:24;9.00;99.90
27506;DHT22;14939;43.596;1.320;2024-01-15T02:39:50;9.00;99.90
27506;DHT22;14939;43.596;1.320;2024-01-15T02:42:16;9.00;99.90
27506;DHT22;14939;43.596;1.320;2024-01-15T02:44:41;8.90;99.90
27506;DHT22;14939;43.596;1.320;2024-01-15T02:47:07;8.90;99.90
27506;DHT22;14939;43.596;1.320;2024-01-15T02:49:32;8.80;99.90
27506;DHT22;14939;43.596;1.320;2024-01-15T02:51:58;8.90;99.90
27506;DHT22;14939;43.596;1.320;2024-01-15T02:54:24;8.90;99.90
27506;DHT22;14939;43.596;1.320;2024-01-15T02:56:49;8.90;99.90
27506;DHT22;14939;43.596;1.320;2024-01-15T02:59:15;8.90;99.90
27506;DHT22;14939;43.596;1.320;2024-01-15T03:01:40;8.90;99.90
27506;DHT22;14939;43.596;1.320;2024-01-15T03:04:06;8.90;99.90
27506;DHT22;14939;43.596;1.320;2024-01-15T03:06:32;9.00;99.90
27506;DHT22;14939;43.596;1.320;2024-01-15T03:08:57;8.90;99.90
27506;DHT22;14939;43.596;1.320;2024-01-15T03:11:23;8.90;99.90
27506;DHT22;14939;43.596;1.320;2024-01-15T03:13:48;9.00;99.90
27506;DHT22;14939;43.596;1.320;2024-01-15T03:16:14;9.00;99.90
27506;DHT22;14939;43.596;1.320;2024-01-15T03:18:40;9.00;99.90
27506;DHT22;14939;43.596;1.320;2024-01-15T03:21:06;9.00;99.90
27506;DHT22;14939;43.596;1.320;2024-01-15T03:23:31;9.00;99.90
27506;DHT22;14939;43.596;1.320;2024-01-15T03:25:57;9.00;99.90
27506;DHT22;14939;43.596;1.320;2024-01-15T03:28:23;8.90;99.90
27506;DHT22;14939;43.596;1.320;2024-01-15T03:30:48;8.90;99.90
27506;DHT22;14939;43.596;1.320;2024-01-15T03:33:15;8.90;99.90
27506;DHT22;14939;43.596;1.320;2024-01-15T03:35:40;8.90;99.90
27506;DHT22;14939;43.596;1.320;2024-01-15T03:38:06;8.90;99.90
27506;DHT22;14939;43.596;1.320;2024-01-15T03:40:31;8.90;99.90
27506;DHT22;14939;43.596;1.320;2024-01-15T03:42:57;8.90;99.90
27506;DHT22;14939;43.596;1.320;2024-01-15T03:45:23;8.90;99.90
27506;DHT22;14939;43.596;1.320;2024-01-15T03:47:48;9.00;99.90
27506;DHT22;14939;43.596;1.320;2024-01-15T03:50:14;9.00;99.90
27506;DHT22;14939;43.596;1.320;2024-01-15T03:52:40;9.00;99.90
27506;DHT22;14939;43.596;1.320;2024-01-15T03:55:05;9.00;99.90
27506;DHT22;14939;43.596;1.320;2024-01-15T03:57:31;9.00;99.90
27506;DHT22;14939;43.596;1.320;2024-01-15T03:59:57;9.00;99.90
27506;DHT22;14939;43.596;1.320;2024-01-15T04:02:22;9.00;99.90
27506;DHT22;14939;43.596;1.320;2024-01-15T04:04:48;9.00;99.90
27506;DHT22;14939;43.596;1.320;2024-01-15T04:07:13;9.00;99.90
27506;DHT22;14939;43.596;1.320;2024-01-15T04:09:39;9.00;99.90
27506;DHT22;14939;43.596;1.320;2024-01-15T04:12:05;9.00;99.90
27506;DHT22;14939;43.596;1.320;2024-01-15T04:14:30;9.00;99.90
27506;DHT22;14939;43.596;1.320;2024-01-15T04:16:56;9.00;99.90
27506;DHT22;14939;43.596;1.320;2024-01-15T04:19:22;9.00;99.90
27506;DHT22;14939;43.596;1.320;2024-01-15T04:21:47;9.00;99.90
27506;DHT22;14939;43.596;1.320;2024-01-15T04:24:13;9.00;99.90
27506;DHT22;14939;43.596;1.320;2024-01-15T04:26:39;9.00;99.90
27506;DHT22;14939;43.596;1.320;2024-01-15T04:29:04;9.00;99.90
27506;DHT22;14939;43.596;1.320;2024-01-15T04:31:30;9.00;99.90
27506;DHT22;14939;43.596;1.320;2024-01-15T04:33:56;9.00;99.90
27506;DHT22;14939;43.596;1.320;2024-01-15T04:36:22;9.00;99.90
27506;DHT22;14939;43.596;1.320;2024-01-15T04:38:48;9.10;99.90
27506;DHT22;14939;43.596;1.320;2024-01-15T04:41:14;9.10;99.90
27506;DHT22;14939;43.596;1.320;2024-01-15T04:43:41;9.00;99.90
27506;DHT22;14939;43.596;1.320;2024-01-15T04:46:07;9.00;99.90
27506;DHT22;14939;43.596;1.320;2024-01-15T04:48:33;9.00;99.90
27506;DHT22;14939;43.596;1.320;2024-01-15T04:50:59;9.00;99.90
27506;DHT22;14939;43.596;1.320;2024-01-15T04:53:25;9.00;99.90
27506;DHT22;14939;43.596;1.320;2024-01-15T04:55:51;9.00;99.90
27506;DHT22;14939;43.596;1.320;2024-01-15T04:58:16;9.00;99.90
27506;DHT22;14939;43.596;1.320;2024-01-15T05:00:42;9.00;99.90
27506;DHT22;14939;43.596;1.320;2024-01-15T05:03:08;9.00;99.90
27506;DHT22;14939;43.596;1.320;2024-01-15T05:05:33;9.00;99.90
27506;DHT22;14939;43.596;1.320;2024-01-15T05:07:59;9.00;99.90
27506;DHT22;14939;43.596;1.320;2024-01-15T05:10:24;9.00;99.90
27506;DHT22;14939;43.596;1.320;2024-01-15T05:12:50;9.00;99.90
27506;DHT22;14939;43.596;1.320;2024-01-15T05:15:16;9.00;99.90
27506;DHT22;14939;43.596;1.320;2024-01-15T05:17:42;9.00;99.90
27506;DHT22;14939;43.596;1.320;2024-01-15T05:20:07;9.00;99.90
27506;DHT22;14939;43.596;1.320;2024-01-15T05:22:33;9.00;99.90
27506;DHT22;14939;43.596;1.320;2024-01-15T05:24:59;9.10;99.90
27506;DHT22;14939;43.596;1.320;2024-01-15T05:27:24;9.10;99.90
27506;DHT22;14939;43.596;1.320;2024-01-15T05:29:50;9.10;99.90
27506;DHT22;14939;43.596;1.320;2024-01-15T05:32:16;9.10;99.90
27506;DHT22;14939;43.596;1.320;2024-01-15T05:34:41;9.10;99.90
27506;DHT22;14939;43.596;1.320;2024-01-15T05:37:07;9.10;99.90
27506;DHT22;14939;43.596;1.320;2024-01-15T05:39:33;9.10;99.90
27506;DHT22;14939;43.596;1.320;2024-01-15T05:41:58;9.00;99.90
27506;DHT22;14939;43.596;1.320;2024-01-15T05:44:25;9.00;99.90
27506;DHT22;14939;43.596;1.320;2024-01-15T05:46:51;9.00;99.90
27506;DHT22;14939;43.596;1.320;2024-01-15T05:49:16;9.10;99.90
27506;DHT22;14939;43.596;1.320;2024-01-15T05:51:42;9.10;99.90
27506;DHT22;14939;43.596;1.320;2024-01-15T05:54:08;9.10;99.90
27506;DHT22;14939;43.596;1.320;2024-01-15T05:56:33;9.20;99.90
27506;DHT22;14939;43.596;1.320;2024-01-15T05:58:59;9.10;99.90
27506;DHT22;14939;43.596;1.320;2024-01-15T06:01:24;9.10;99.90
27506;DHT22;14939;43.596;1.320;2024-01-15T06:03:50;9.20;99.90
27506;DHT22;14939;43.596;1.320;2024-01-15T06:06:16;9.10;99.90
27506;DHT22;14939;43.596;1.320;2024-01-15T06:08:41;9.10;99.90
27506;DHT22;14939;43.596;1.320;2024-01-15T06:11:07;9.10;99.90
27506;DHT22;14939;43.596;1.320;2024-01-15T06:13:33;9.10;99.90
27506;DHT22;14939;43.596;1.320;2024-01-15T06:15:59;9.00;99.90
27506;DHT22;14939;43.596;1.320;2024-01-15T06:18:24;9.00;99.90
27506;DHT22;14939;43.596;1.320;2024-01-15T06:20:50;9.10;99.90
27506;DHT22;14939;43.596;1.320;2024-01-15T06:23:16;9.10;99.90
27506;DHT22;14939;43.596;1.320;2024-01-15T06:25:41;9.10;99.90
27506;DHT22;14939;43.596;1.320;2024-01-15T06:28:08;9.20;99.90
27506;DHT22;14939;43.596;1.320;2024-01-15T06:30:35;9.20;99.90
27506;DHT22;14939;43.596;1.320;2024-01-15T06:33:00;9.10;99.90
27506;DHT22;14939;43.596;1.320;2024-01-15T06:35:26;9.10;99.90
27506;DHT22;14939;43.596;1.320;2024-01-15T06:37:51;9.20;99.90
27506;DHT22;14939;43.596;1.320;2024-01-15T06:40:17;9.20;99.90
27506;DHT22;14939;43.596;1.320;2024-01-15T06:42:43;9.20;99.90
27506;DHT22;14939;43.596;1.320;2024-01-15T06:45:08;9.20;99.90
27506;DHT22;14939;43.596;1.320;2024-01-15T06:47:34;9.20;99.90
27506;DHT22;14939;43.596;1.320;2024-01-15T06:50:00;9.20;99.90
27506;DHT22;14939;43.596;1.320;2024-01-15T06:52:25;9.10;99.90
27506;DHT22;14939;43.596;1.320;2024-01-15T06:54:51;9.20;99.90
27506;DHT22;14939;43.596;1.320;2024-01-15T06:57:16;9.20;99.90
27506;DHT22;14939;43.596;1.320;2024-01-15T06:59:42;9.20;99.90
27506;DHT22;14939;43.596;1.320;2024-01-15T07:02:08;9.20;99.90
27506;DHT22;14939;43.596;1.320;2024-01-15T07:04:33;9.20;99.90
27506;DHT22;14939;43.596;1.320;2024-01-15T07:06:59;9.20;99.90
27506;DHT22;14939;43.596;1.320;2024-01-15T07:09:24;9.20;99.90
27506;DHT22;14939;43.596;1.320;2024-01-15T07:11:50;9.20;99.90
27506;DHT22;14939;43.596;1.320;2024-01-15T07:14:16;9.20;99.90
27506;DHT22;14939;43.596;1.320;2024-01-15T07:16:42;9.10;99.90
27506;DHT22;14939;43.596;1.320;2024-01-15T07:19:08;9.10;99.90
27506;DHT22;14939;43.596;1.320;2024-01-15T07:21:33;9.10;99.90
27506;DHT22;14939;43.596;1.320;2024-01-15T07:23:59;9.10;99.90
27506;DHT22;14939;43.596;1.320;2024-01-15T07:26:24;9.10;99.90
27506;DHT22;14939;43.596;1.320;2024-01-15T07:28:50;9.10;99.90
27506;DHT22;14939;43.596;1.320;2024-01-15T07:31:17;9.20;99.90
27506;DHT22;14939;43.596;1.320;2024-01-15T07:33:42;9.10;99.90
27506;DHT22;14939;43.596;1.320;2024-01-15T07:36:08;9.10;99.90
27506;DHT22;14939;43.596;1.320;2024-01-15T07:38:34;9.20;99.90
27506;DHT22;14939;43.596;1.320;2024-01-15T07:40:59;9.20;99.90
27506;DHT22;14939;43.596;1.320;2024-01-15T07:43:26;9.20;99.90
27506;DHT22;14939;43.596;1.320;2024-01-15T07:45:53;9.20;99.90
27506;DHT22;14939;43.596;1.320;2024-01-15T07:48:18;9.20;99.90
27506;DHT22;14939;43.596;1.320;2024-01-15T07:50:44;9.20;99.90
27506;DHT22;14939;43.596;1.320;2024-01-15T07:53:10;9.20;99.90
27506;DHT22;14939;43.596;1.320;2024-01-15T07:55:35;9.30;99.90
27506;DHT22;14939;43.596;1.320;2024-01-15T07:58:01;9.30;99.90
27506;DHT22;14939;43.596;1.320;2024-01-15T08:00:27;9.30;99.90
27506;DHT22;14939;43.596;1.320;2024-01-15T08:02:53;9.30;99.90
27506;DHT22;14939;43.596;1.320;2024-01-15T08:05:18;9.30;99.90
27506;DHT22;14939;43.596;1.320;2024-01-15T08:07:44;9.30;99.90
27506;DHT22;14939;43.596;1.320;2024-01-15T08:10:10;9.30;99.90
27506;DHT22;14939;43.596;1.320;2024-01-15T08:12:35;9.30;99.90
27506;DHT22;14939;43.596;1.320;2024-01-15T08:15:01;9.30;99.90
27506;DHT22;14939;43.596;1.320;2024-01-15T08:17:27;9.40;99.90
27506;DHT22;14939;43.596;1.320;2024-01-15T08:19:54;9.40;99.90
27506;DHT22;14939;43.596;1.320;2024-01-15T08:22:20;9.40;99.90
27506;DHT22;14939;43.596;1.320;2024-01-15T08:24:45;9.40;99.90
27506;DHT22;14939;43.596;1.320;2024-01-15T08:27:11;9.40;99.90
27506;DHT22;14939;43.596;1.320;2024-01-15T08:29:37;9.50;99.90
27506;DHT22;14939;43.596;1.320;2024-01-15T08:32:02;9.50;99.90
27506;DHT22;14939;43.596;1.320;2024-01-15T08:34:28;9.60;99.90
27506;DHT22;14939;43.596;1.320;2024-01-15T08:36:54;9.70;99.90
27506;DHT22;14939;43.596;1.320;2024-01-15T08:39:19;9.70;99.90
27506;DHT22;14939;43.596;1.320;2024-01-15T08:41:45;9.70;99.90
27506;DHT22;14939;43.596;1.320;2024-01-15T08:44:14;9.80;99.90
27506;DHT22;14939;43.596;1.320;2024-01-15T08:46:39;9.80;99.90
27506;DHT22;14939;43.596;1.320;2024-01-15T08:49:05;9.80;99.90
27506;DHT22;14939;43.596;1.320;2024-01-15T08:51:31;9.80;99.90
27506;DHT22;14939;43.596;1.320;2024-01-15T08:53:57;9.90;99.90
27506;DHT22;14939;43.596;1.320;2024-01-15T08:56:23;9.90;99.90
27506;DHT22;14939;43.596;1.320;2024-01-15T08:58:49;10.00;99.90
27506;DHT22;14939;43.596;1.320;2024-01-15T09:01:14;10.00;99.90
27506;DHT22;14939;43.596;1.320;2024-01-15T09:03:40;10.10;99.90
27506;DHT22;14939;43.596;1.320;2024-01-15T09:06:08;10.10;99.90
27506;DHT22;14939;43.596;1.320;2024-01-15T09:08:34;10.20;99.90
27506;DHT22;14939;43.596;1.320;2024-01-15T09:11:00;10.20;99.90
27506;DHT22;14939;43.596;1.320;2024-01-15T09:13:28;10.30;99.90
27506;DHT22;14939;43.596;1.320;2024-01-15T09:15:54;10.50;99.90
27506;DHT22;14939;43.596;1.320;2024-01-15T09:18:19;10.50;99.90
27506;DHT22;14939;43.596;1.320;2024-01-15T09:20:45;10.50;99.90
27506;DHT22;14939;43.596;1.320;2024-01-15T09:23:10;10.30;99.90
27506;DHT22;14939;43.596;1.320;2024-01-15T09:25:36;10.40;99.90
27506;DHT22;14939;43.596;1.320;2024-01-15T09:28:02;10.50;99.90
27506;DHT22;14939;43.596;1.320;2024-01-15T09:30:27;10.50;99.90
27506;DHT22;14939;43.596;1.320;2024-01-15T09:32:53;10.50;99.90
27506;DHT22;14939;43.596;1.320;2024-01-15T09:35:19;10.70;99.90
27506;DHT22;14939;43.596;1.320;2024-01-15T09:37:44;10.80;99.90
27506;DHT22;14939;43.596;1.320;2024-01-15T09:40:13;10.80;99.90
27506;DHT22;14939;43.596;1.320;2024-01-15T09:42:41;10.90;99.90
27506;DHT22;14939;43.596;1.320;2024-01-15T09:45:08;11.00;99.90
27506;DHT22;14939;43.596;1.320;2024-01-15T09:47:35;11.10;99.90
27506;DHT22;14939;43.596;1.320;2024-01-15T09:50:01;11.20;99.90
27506;DHT22;14939;43.596;1.320;2024-01-15T09:52:29;11.30;99.90
27506;DHT22;14939;43.596;1.320;2024-01-15T09:54:57;11.40;99.90
27506;DHT22;14939;43.596;1.320;2024-01-15T09:57:24;11.50;99.90
27506;DHT22;14939;43.596;1.320;2024-01-15T09:59:52;11.40;99.90
27506;DHT22;14939;43.596;1.320;2024-01-15T10:02:19;11.30;99.90
27506;DHT22;14939;43.596;1.320;2024-01-15T10:04:46;11.30;99.90
27506;DHT22;14939;43.596;1.320;2024-01-15T10:07:15;11.40;99.90
27506;DHT22;14939;43.596;1.320;2024-01-15T10:09:42;11.50;99.90
27506;DHT22;14939;43.596;1.320;2024-01-15T10:12:09;11.60;99.90
27506;DHT22;14939;43.596;1.320;2024-01-15T10:14:35;11.60;99.90
27506;DHT22;14939;43.596;1.320;2024-01-15T10:17:00;11.60;99.90
27506;DHT22;14939;43.596;1.320;2024-01-15T10:19:26;11.70;99.90
27506;DHT22;14939;43.596;1.320;2024-01-15T10:21:52;11.70;99.90
27506;DHT22;14939;43.596;1.320;2024-01-15T10:24:18;11.70;99.90
27506;DHT22;14939;43.596;1.320;2024-01-15T10:26:44;11.60;99.90
27506;DHT22;14939;43.596;1.320;2024-01-15T10:29:10;11.40;99.90
27506;DHT22;14939;43.596;1.320;2024-01-15T10:31:37;11.40;99.90
27506;DHT22;14939;43.596;1.320;2024-01-15T10:34:13;11.40;99.90
27506;DHT22;14939;43.596;1.320;2024-01-15T10:36:41;11.30;99.90
27506;DHT22;14939;43.596;1.320;2024-01-15T10:39:07;11.40;99.90
27506;DHT22;14939;43.596;1.320;2024-01-15T10:41:33;11.30;99.90
27506;DHT22;14939;43.596;1.320;2024-01-15T10:43:59;11.30;99.90
27506;DHT22;14939;43.596;1.320;2024-01-15T10:46:25;11.30;99.90
27506;DHT22;14939;43.596;1.320;2024-01-15T10:48:51;11.30;99.90
27506;DHT22;14939;43.596;1.320;2024-01-15T10:51:17;11.40;99.90
27506;DHT22;14939;43.596;1.320;2024-01-15T10:53:44;11.50;99.90
27506;DHT22;14939;43.596;1.320;2024-01-15T10:56:12;11.50;99.90
27506;DHT22;14939;43.596;1.320;2024-01-15T10:58:39;11.60;99.90
27506;DHT22;14939;43.596;1.320;2024-01-15T11:01:05;11.80;99.90
27506;DHT22;14939;43.596;1.320;2024-01-15T11:03:32;11.80;99.90
27506;DHT22;14939;43.596;1.320;2024-01-15T11:05:58;11.80;99.90
27506;DHT22;14939;43.596;1.320;2024-01-15T11:08:25;11.70;99.90
27506;DHT22;14939;43.596;1.320;2024-01-15T11:10:51;11.70;99.90
27506;DHT22;14939;43.596;1.320;2024-01-15T11:13:21;11.70;99.90
27506;DHT22;14939;43.596;1.320;2024-01-15T11:16:04;11.70;99.90
27506;DHT22;14939;43.596;1.320;2024-01-15T11:23:44;11.70;99.90
27506;DHT22;14939;43.596;1.320;2024-01-15T11:34:08;12.00;99.90
27506;DHT22;14939;43.596;1.320;2024-01-15T11:42:02;12.00;99.90
27506;DHT22;14939;43.596;1.320;2024-01-15T11:44:31;12.00;99.90
27506;DHT22;14939;43.596;1.320;2024-01-15T11:47:05;11.90;99.90
27506;DHT22;14939;43.596;1.320;2024-01-15T11:52:04;11.80;99.90
27506;DHT22;14939;43.596;1.320;2024-01-15T11:54:36;11.70;99.90
27506;DHT22;14939;43.596;1.320;2024-01-15T11:57:09;11.70;99.90
27506;DHT22;14939;43.596;1.320;2024-01-15T11:59:36;11.60;99.90
27506;DHT22;14939;43.596;1.320;2024-01-15T12:02:02;11.60;99.90
27506;DHT22;14939;43.596;1.320;2024-01-15T12:04:28;11.50;99.90
27506;DHT22;14939;43.596;1.320;2024-01-15T12:06:54;11.50;99.90
27506;DHT22;14939;43.596;1.320;2024-01-15T12:09:19;11.60;99.90
27506;DHT22;14939;43.596;1.320;2024-01-15T12:11:54;11.70;99.90
27506;DHT22;14939;43.596;1.320;2024-01-15T12:14:24;11.70;99.90
27506;DHT22;14939;43.596;1.320;2024-01-15T12:16:50;11.80;99.90
27506;DHT22;14939;43.596;1.320;2024-01-15T12:19:16;11.90;99.90
27506;DHT22;14939;43.596;1.320;2024-01-15T12:21:41;11.90;99.90
27506;DHT22;14939;43.596;1.320;2024-01-15T12:24:07;11.70;99.90
27506;DHT22;14939;43.596;1.320;2024-01-15T12:26:34;11.70;99.90
27506;DHT22;14939;43.596;1.320;2024-01-15T12:29:02;11.70;99.90
27506;DHT22;14939;43.596;1.320;2024-01-15T12:31:29;11.70;99.90
27506;DHT22;14939;43.596;1.320;2024-01-15T12:33:56;11.60;99.90
27506;DHT22;14939;43.596;1.320;2024-01-15T12:36:21;11.60;99.90
27506;DHT22;14939;43.596;1.320;2024-01-15T12:38:47;11.70;99.90
27506;DHT22;14939;43.596;1.320;2024-01-15T12:41:13;11.80;99.90
27506;DHT22;14939;43.596;1.320;2024-01-15T12:43:38;11.80;99.90
27506;DHT22;14939;43.596;1.320;2024-01-15T12:46:06;11.70;99.90
27506;DHT22;14939;43.596;1.320;2024-01-15T12:48:31;11.70;99.90
27506;DHT22;14939;43.596;1.320;2024-01-15T12:50:57;11.80;99.90
27506;DHT22;14939;43.596;1.320;2024-01-15T12:53:23;11.80;99.90
27506;DHT22;14939;43.596;1.320;2024-01-15T12:55:48;11.80;99.90
27506;DHT22;14939;43.596;1.320;2024-01-15T12:58:14;11.80;99.90
27506;DHT22;14939;43.596;1.320;2024-01-15T13:00:39;11.80;99.90
27506;DHT22;14939;43.596;1.320;2024-01-15T13:03:05;11.80;99.90
27506;DHT22;14939;43.596;1.320;2024-01-15T13:05:32;11.80;99.90
27506;DHT22;14939;43.596;1.320;2024-01-15T13:08:01;11.70;99.90
27506;DHT22;14939;43.596;1.320;2024-01-15T13:10:28;11.60;99.90
27506;DHT22;14939;43.596;1.320;2024-01-15T13:12:55;11.60;99.90
27506;DHT22;14939;43.596;1.320;2024-01-15T13:15:21;11.80;99.90
27506;DHT22;14939;43.596;1.320;2024-01-15T13:17:47;11.70;99.90
27506;DHT22;14939;43.596;1.320;2024-01-15T13:20:12;11.90;99.90
27506;DHT22;14939;43.596;1.320;2024-01-15T13:22:38;11.90;99.90
27506;DHT22;14939;43.596;1.320;2024-01-15T13:25:06;11.80;99.90
27506;DHT22;14939;43.596;1.320;2024-01-15T13:27:33;11.70;99.90
27506;DHT22;14939;43.596;1.320;2024-01-15T13:30:00;11.70;99.90
27506;DHT22;14939;43.596;1.320;2024-01-15T13:32:28;11.70;99.90
27506;DHT22;14939;43.596;1.320;2024-01-15T13:34:57;11.80;99.90
27506;DHT22;14939;43.596;1.320;2024-01-15T13:37:22;11.90;99.90
27506;DHT22;14939;43.596;1.320;2024-01-15T13:39:52;11.90;99.90
27506;DHT22;14939;43.596;1.320;2024-01-15T13:42:18;11.80;99.90
27506;DHT22;14939;43.596;1.320;2024-01-15T13:44:43;11.80;99.90
27506;DHT22;14939;43.596;1.320;2024-01-15T13:47:09;11.90;99.90
27506;DHT22;14939;43.596;1.320;2024-01-15T13:49:35;11.80;99.90
27506;DHT22;14939;43.596;1.320;2024-01-15T13:52:02;11.80;99.90
27506;DHT22;14939;43.596;1.320;2024-01-15T13:54:29;11.80;99.90
27506;DHT22;14939;43.596;1.320;2024-01-15T13:56:55;11.80;99.90
27506;DHT22;14939;43.596;1.320;2024-01-15T13:59:21;11.70;99.90
27506;DHT22;14939;43.596;1.320;2024-01-15T14:01:47;11.80;99.90
27506;DHT22;14939;43.596;1.320;2024-01-15T14:04:13;11.90;99.90
27506;DHT22;14939;43.596;1.320;2024-01-15T14:06:39;11.90;99.90
27506;DHT22;14939;43.596;1.320;2024-01-15T14:09:04;11.80;99.90
27506;DHT22;14939;43.596;1.320;2024-01-15T14:11:30;11.80;99.90
27506;DHT22;14939;43.596;1.320;2024-01-15T14:13:56;11.70;99.90
27506;DHT22;14939;43.596;1.320;2024-01-15T14:16:22;11.70;99.90
27506;DHT22;14939;43.596;1.320;2024-01-15T14:18:48;11.70;99.90
27506;DHT22;14939;43.596;1.320;2024-01-15T14:21:13;11.70;99.90
27506;DHT22;14939;43.596;1.320;2024-01-15T14:23:40;11.70;99.90
27506;DHT22;14939;43.596;1.320;2024-01-15T14:26:05;11.70;99.90
27506;DHT22;14939;43.596;1.320;2024-01-15T14:28:31;11.70;99.90
27506;DHT22;14939;43.596;1.320;2024-01-15T14:30:57;11.70;99.90
27506;DHT22;14939;43.596;1.320;2024-01-15T14:33:26;11.70;99.90
27506;DHT22;14939;43.596;1.320;2024-01-15T14:35:51;11.70;99.90
27506;DHT22;14939;43.596;1.320;2024-01-15T14:38:17;11.70;99.90
27506;DHT22;14939;43.596;1.320;2024-01-15T14:40:43;11.60;99.90
27506;DHT22;14939;43.596;1.320;2024-01-15T14:43:10;11.60;99.90
27506;DHT22;14939;43.596;1.320;2024-01-15T14:45:35;11.70;99.90
27506;DHT22;14939;43.596;1.320;2024-01-15T14:48:01;11.70;99.90
27506;DHT22;14939;43.596;1.320;2024-01-15T14:50:27;11.70;99.90
27506;DHT22;14939;43.596;1.320;2024-01-15T14:52:52;11.60;99.90
27506;DHT22;14939;43.596;1.320;2024-01-15T14:55:19;11.60;99.90
27506;DHT22;14939;43.596;1.320;2024-01-15T14:57:45;11.60;99.90
27506;DHT22;14939;43.596;1.320;2024-01-15T15:00:10;11.60;99.90
27506;DHT22;14939;43.596;1.320;2024-01-15T15:02:38;11.60;99.90
27506;DHT22;14939;43.596;1.320;2024-01-15T15:05:04;11.60;99.90
27506;DHT22;14939;43.596;1.320;2024-01-15T15:07:30;11.60;99.90
27506;DHT22;14939;43.596;1.320;2024-01-15T15:09:56;11.60;99.90
27506;DHT22;14939;43.596;1.320;2024-01-15T15:12:22;11.60;99.90
27506;DHT22;14939;43.596;1.320;2024-01-15T15:14:47;11.60;99.90
27506;DHT22;14939;43.596;1.320;2024-01-15T15:17:13;11.60;99.90
27506;DHT22;14939;43.596;1.320;2024-01-15T15:19:39;11.60;99.90
27506;DHT22;14939;43.596;1.320;2024-01-15T15:22:07;11.60;99.90
27506;DHT22;14939;43.596;1.320;2024-01-15T15:24:37;11.60;99.90
27506;DHT22;14939;43.596;1.320;2024-01-15T15:27:03;11.60;99.90
27506;DHT22;14939;43.596;1.320;2024-01-15T15:29:31;11.60;99.90
27506;DHT22;14939;43.596;1.320;2024-01-15T15:31:56;11.60;99.90
27506;DHT22;14939;43.596;1.320;2024-01-15T15:34:22;11.60;99.90
27506;DHT22;14939;43.596;1.320;2024-01-15T15:36:48;11.60;99.90
27506;DHT22;14939;43.596;1.320;2024-01-15T15:39:13;11.60;99.90
27506;DHT22;14939;43.596;1.320;2024-01-15T15:41:43;11.60;99.90
27506;DHT22;14939;43.596;1.320;2024-01-15T15:44:09;11.60;99.90
27506;DHT22;14939;43.596;1.320;2024-01-15T15:46:35;11.60;99.90
27506;DHT22;14939;43.596;1.320;2024-01-15T15:49:01;11.60;99.90
27506;DHT22;14939;43.596;1.320;2024-01-15T15:51:32;11.60;99.90
27506;DHT22;14939;43.596;1.320;2024-01-15T15:53:58;11.60;99.90
27506;DHT22;14939;43.596;1.320;2024-01-15T15:56:23;11.60;99.90